sensor_id;sensor_type;location;lat;lon;timestamp;P1;durP1;ratioP1;P2;durP2;ratioP2
14377;SDS011;7272;53.668;9.578;2023-04-27T00:02:04;3.60;;;3.30;;
14377;SDS011;7272;53.668;9.578;2023-04-27T00:05:06;4.37;;;3.47;;
14377;SDS011;7272;53.668;9.578;2023-04-27T00:08:07;4.07;;;3.33;;
14377;SDS011;7272;53.668;9.578;2023-04-27T00:11:09;4.70;;;3.60;;
14377;SDS011;7272;53.668;9.578;2023-04-27T00:14:10;8.10;;;3.77;;
14377;SDS011;7272;53.668;9.578;2023-04-27T00:17:11;3.40;;;3.10;;
14377;SDS011;7272;53.668;9.578;2023-04-27T00:20:13;6.47;;;3.70;;
14377;SDS011;7272;53.668;9.578;2023-04-27T00:23:14;4.07;;;3.13;;
14377;SDS011;7272;53.668;9.578;2023-04-27T00:26:16;5.23;;;3.90;;
14377;SDS011;7272;53.668;9.578;2023-04-27T00:29:20;4.73;;;3.80;;
14377;SDS011;7272;53.668;9.578;2023-04-27T00:32:22;4.23;;;3.43;;
14377;SDS011;7272;53.668;9.578;2023-04-27T00:35:23;4.77;;;3.70;;
14377;SDS011;7272;53.668;9.578;2023-04-27T00:38:24;3.23;;;3.00;;
14377;SDS011;7272;53.668;9.578;2023-04-27T00:41:26;4.10;;;3.70;;
14377;SDS011;7272;53.668;9.578;2023-04-27T00:44:27;5.00;;;3.40;;
14377;SDS011;7272;53.668;9.578;2023-04-27T00:47:29;5.23;;;4.27;;
14377;SDS011;7272;53.668;9.578;2023-04-27T00:50:31;4.73;;;3.90;;
14377;SDS011;7272;53.668;9.578;2023-04-27T00:53:33;6.73;;;3.83;;
14377;SDS011;7272;53.668;9.578;2023-04-27T00:56:37;4.73;;;3.77;;
14377;SDS011;7272;53.668;9.578;2023-04-27T00:59:38;6.10;;;4.13;;
14377;SDS011;7272;53.668;9.578;2023-04-27T01:02:39;4.30;;;3.90;;
14377;SDS011;7272;53.668;9.578;2023-04-27T01:05:41;4.43;;;4.03;;
14377;SDS011;7272;53.668;9.578;2023-04-27T01:08:42;4.20;;;3.77;;
14377;SDS011;7272;53.668;9.578;2023-04-27T01:11:44;4.70;;;4.20;;
14377;SDS011;7272;53.668;9.578;2023-04-27T01:14:45;3.97;;;3.50;;
14377;SDS011;7272;53.668;9.578;2023-04-27T01:17:47;5.00;;;4.22;;
14377;SDS011;7272;53.668;9.578;2023-04-27T01:20:48;4.50;;;2.90;;
14377;SDS011;7272;53.668;9.578;2023-04-27T01:23:50;5.50;;;3.63;;
14377;SDS011;7272;53.668;9.578;2023-04-27T01:26:51;4.37;;;2.87;;
14377;SDS011;7272;53.668;9.578;2023-04-27T01:29:53;3.83;;;3.37;;
14377;SDS011;7272;53.668;9.578;2023-04-27T01:32:54;4.33;;;3.33;;
14377;SDS011;7272;53.668;9.578;2023-04-27T01:35:55;4.53;;;3.13;;
14377;SDS011;7272;53.668;9.578;2023-04-27T01:38:57;3.17;;;2.87;;
14377;SDS011;7272;53.668;9.578;2023-04-27T01:41:58;3.87;;;3.30;;
14377;SDS011;7272;53.668;9.578;2023-04-27T01:44:59;3.77;;;3.00;;
14377;SDS011;7272;53.668;9.578;2023-04-27T01:48:01;3.67;;;2.63;;
14377;SDS011;7272;53.668;9.578;2023-04-27T01:51:02;3.63;;;2.20;;
14377;SDS011;7272;53.668;9.578;2023-04-27T01:54:04;2.60;;;2.40;;
14377;SDS011;7272;53.668;9.578;2023-04-27T01:57:05;2.23;;;2.13;;
14377;SDS011;7272;53.668;9.578;2023-04-27T02:00:07;3.10;;;2.50;;
14377;SDS011;7272;53.668;9.578;2023-04-27T02:03:22;2.93;;;2.63;;
14377;SDS011;7272;53.668;9.578;2023-04-27T02:06:24;6.53;;;2.90;;
14377;SDS011;7272;53.668;9.578;2023-04-27T02:09:25;5.10;;;2.50;;
14377;SDS011;7272;53.668;9.578;2023-04-27T02:12:27;2.80;;;2.30;;
14377;SDS011;7272;53.668;9.578;2023-04-27T02:15:28;2.27;;;2.07;;
14377;SDS011;7272;53.668;9.578;2023-04-27T02:18:29;2.30;;;2.07;;
14377;SDS011;7272;53.668;9.578;2023-04-27T02:21:31;3.97;;;2.40;;
14377;SDS011;7272;53.668;9.578;2023-04-27T02:24:34;3.17;;;1.87;;
14377;SDS011;7272;53.668;9.578;2023-04-27T02:27:36;2.63;;;2.10;;
14377;SDS011;7272;53.668;9.578;2023-04-27T02:30:37;2.60;;;2.13;;
14377;SDS011;7272;53.668;9.578;2023-04-27T02:33:38;2.53;;;2.33;;
14377;SDS011;7272;53.668;9.578;2023-04-27T02:36:40;2.80;;;2.20;;
14377;SDS011;7272;53.668;9.578;2023-04-27T02:39:43;2.43;;;2.23;;
14377;SDS011;7272;53.668;9.578;2023-04-27T02:42:44;3.00;;;2.03;;
14377;SDS011;7272;53.668;9.578;2023-04-27T02:45:45;2.50;;;2.23;;
14377;SDS011;7272;53.668;9.578;2023-04-27T02:48:47;3.40;;;3.03;;
14377;SDS011;7272;53.668;9.578;2023-04-27T02:51:48;3.97;;;3.13;;
14377;SDS011;7272;53.668;9.578;2023-04-27T02:54:50;8.57;;;3.47;;
14377;SDS011;7272;53.668;9.578;2023-04-27T02:57:51;4.33;;;3.30;;
14377;SDS011;7272;53.668;9.578;2023-04-27T03:00:52;4.40;;;3.67;;
14377;SDS011;7272;53.668;9.578;2023-04-27T03:03:54;7.60;;;3.50;;
14377;SDS011;7272;53.668;9.578;2023-04-27T03:06:55;5.00;;;3.00;;
14377;SDS011;7272;53.668;9.578;2023-04-27T03:09:57;3.47;;;3.20;;
14377;SDS011;7272;53.668;9.578;2023-04-27T03:12:58;3.70;;;3.37;;
14377;SDS011;7272;53.668;9.578;2023-04-27T03:15:59;3.67;;;3.10;;
14377;SDS011;7272;53.668;9.578;2023-04-27T03:19:00;4.13;;;2.87;;
14377;SDS011;7272;53.668;9.578;2023-04-27T03:22:04;3.97;;;3.07;;
14377;SDS011;7272;53.668;9.578;2023-04-27T03:25:06;3.87;;;2.90;;
14377;SDS011;7272;53.668;9.578;2023-04-27T03:28:08;3.77;;;3.40;;
14377;SDS011;7272;53.668;9.578;2023-04-27T03:31:09;4.70;;;3.27;;
14377;SDS011;7272;53.668;9.578;2023-04-27T03:34:12;5.10;;;3.67;;
14377;SDS011;7272;53.668;9.578;2023-04-27T03:37:13;3.70;;;3.40;;
14377;SDS011;7272;53.668;9.578;2023-04-27T03:40:15;3.83;;;3.43;;
14377;SDS011;7272;53.668;9.578;2023-04-27T03:43:16;4.03;;;3.70;;
14377;SDS011;7272;53.668;9.578;2023-04-27T03:46:18;3.40;;;3.00;;
14377;SDS011;7272;53.668;9.578;2023-04-27T03:49:20;4.27;;;3.70;;
14377;SDS011;7272;53.668;9.578;2023-04-27T03:52:21;4.37;;;3.97;;
14377;SDS011;7272;53.668;9.578;2023-04-27T03:55:23;7.47;;;3.67;;
14377;SDS011;7272;53.668;9.578;2023-04-27T03:58:25;4.17;;;3.60;;
14377;SDS011;7272;53.668;9.578;2023-04-27T04:01:50;6.23;;;4.20;;
14377;SDS011;7272;53.668;9.578;2023-04-27T04:04:53;4.27;;;3.87;;
14377;SDS011;7272;53.668;9.578;2023-04-27T04:07:54;3.90;;;3.50;;
14377;SDS011;7272;53.668;9.578;2023-04-27T04:10:58;3.67;;;3.40;;
14377;SDS011;7272;53.668;9.578;2023-04-27T04:13:59;3.87;;;3.43;;
14377;SDS011;7272;53.668;9.578;2023-04-27T04:17:00;4.50;;;4.00;;
14377;SDS011;7272;53.668;9.578;2023-04-27T04:20:01;5.07;;;3.47;;
14377;SDS011;7272;53.668;9.578;2023-04-27T04:23:06;4.23;;;3.67;;
14377;SDS011;7272;53.668;9.578;2023-04-27T04:26:08;5.77;;;3.90;;
14377;SDS011;7272;53.668;9.578;2023-04-27T04:29:10;4.27;;;3.03;;
14377;SDS011;7272;53.668;9.578;2023-04-27T04:32:11;4.27;;;3.87;;
14377;SDS011;7272;53.668;9.578;2023-04-27T04:35:16;4.53;;;3.10;;
14377;SDS011;7272;53.668;9.578;2023-04-27T04:38:19;2.83;;;2.57;;
14377;SDS011;7272;53.668;9.578;2023-04-27T04:41:21;3.70;;;3.40;;
14377;SDS011;7272;53.668;9.578;2023-04-27T04:44:23;3.90;;;3.60;;
14377;SDS011;7272;53.668;9.578;2023-04-27T04:47:24;4.20;;;3.80;;
14377;SDS011;7272;53.668;9.578;2023-04-27T04:50:26;3.53;;;3.23;;
14377;SDS011;7272;53.668;9.578;2023-04-27T04:53:27;4.87;;;3.60;;
14377;SDS011;7272;53.668;9.578;2023-04-27T04:56:30;5.43;;;3.77;;
14377;SDS011;7272;53.668;9.578;2023-04-27T04:59:34;4.37;;;3.93;;
14377;SDS011;7272;53.668;9.578;2023-04-27T05:02:35;6.17;;;4.27;;
14377;SDS011;7272;53.668;9.578;2023-04-27T05:05:36;5.63;;;4.00;;
14377;SDS011;7272;53.668;9.578;2023-04-27T05:08:37;4.80;;;3.53;;
14377;SDS011;7272;53.668;9.578;2023-04-27T05:11:40;4.33;;;3.47;;
14377;SDS011;7272;53.668;9.578;2023-04-27T05:14:41;3.97;;;3.60;;
14377;SDS011;7272;53.668;9.578;2023-04-27T05:17:43;6.53;;;4.10;;
14377;SDS011;7272;53.668;9.578;2023-04-27T05:20:44;6.50;;;4.27;;
14377;SDS011;7272;53.668;9.578;2023-04-27T05:23:46;5.57;;;4.13;;
14377;SDS011;7272;53.668;9.578;2023-04-27T05:26:48;4.07;;;3.67;;
14377;SDS011;7272;53.668;9.578;2023-04-27T05:29:49;4.47;;;3.47;;
14377;SDS011;7272;53.668;9.578;2023-04-27T05:32:51;7.67;;;4.23;;
14377;SDS011;7272;53.668;9.578;2023-04-27T05:35:52;5.70;;;4.17;;
14377;SDS011;7272;53.668;9.578;2023-04-27T05:38:53;7.40;;;4.30;;
14377;SDS011;7272;53.668;9.578;2023-04-27T05:41:55;3.70;;;3.40;;
14377;SDS011;7272;53.668;9.578;2023-04-27T05:44:57;4.07;;;3.40;;
14377;SDS011;7272;53.668;9.578;2023-04-27T05:47:58;4.23;;;3.23;;
14377;SDS011;7272;53.668;9.578;2023-04-27T05:50:59;4.30;;;3.70;;
14377;SDS011;7272;53.668;9.578;2023-04-27T05:54:01;4.13;;;2.90;;
14377;SDS011;7272;53.668;9.578;2023-04-27T05:57:03;3.53;;;3.23;;
14377;SDS011;7272;53.668;9.578;2023-04-27T06:00:05;3.27;;;2.97;;
14377;SDS011;7272;53.668;9.578;2023-04-27T06:03:12;3.17;;;2.93;;
14377;SDS011;7272;53.668;9.578;2023-04-27T06:06:13;4.37;;;3.07;;
14377;SDS011;7272;53.668;9.578;2023-04-27T06:09:15;3.53;;;2.90;;
14377;SDS011;7272;53.668;9.578;2023-04-27T06:12:17;3.73;;;3.33;;
14377;SDS011;7272;53.668;9.578;2023-04-27T06:15:18;4.77;;;3.00;;
14377;SDS011;7272;53.668;9.578;2023-04-27T06:18:20;2.90;;;2.70;;
14377;SDS011;7272;53.668;9.578;2023-04-27T06:21:21;4.20;;;2.67;;
14377;SDS011;7272;53.668;9.578;2023-04-27T06:24:22;4.37;;;2.80;;
14377;SDS011;7272;53.668;9.578;2023-04-27T06:27:24;3.43;;;2.70;;
14377;SDS011;7272;53.668;9.578;2023-04-27T06:30:26;3.03;;;2.70;;
14377;SDS011;7272;53.668;9.578;2023-04-27T06:33:27;2.57;;;2.27;;
14377;SDS011;7272;53.668;9.578;2023-04-27T06:36:28;3.17;;;2.23;;
14377;SDS011;7272;53.668;9.578;2023-04-27T06:39:30;3.83;;;2.40;;
14377;SDS011;7272;53.668;9.578;2023-04-27T06:42:32;3.17;;;2.23;;
14377;SDS011;7272;53.668;9.578;2023-04-27T06:45:34;4.20;;;2.70;;
14377;SDS011;7272;53.668;9.578;2023-04-27T06:48:35;4.63;;;2.63;;
14377;SDS011;7272;53.668;9.578;2023-04-27T06:51:36;3.20;;;2.80;;
14377;SDS011;7272;53.668;9.578;2023-04-27T06:54:37;2.53;;;2.33;;
14377;SDS011;7272;53.668;9.578;2023-04-27T06:57:39;3.13;;;2.60;;
14377;SDS011;7272;53.668;9.578;2023-04-27T07:00:41;3.00;;;2.70;;
14377;SDS011;7272;53.668;9.578;2023-04-27T07:03:42;3.10;;;2.80;;
14377;SDS011;7272;53.668;9.578;2023-04-27T07:06:43;3.00;;;2.20;;
14377;SDS011;7272;53.668;9.578;2023-04-27T07:09:44;2.47;;;2.27;;
14377;SDS011;7272;53.668;9.578;2023-04-27T07:12:46;2.67;;;2.30;;
14377;SDS011;7272;53.668;9.578;2023-04-27T07:15:53;3.63;;;2.70;;
14377;SDS011;7272;53.668;9.578;2023-04-27T07:18:56;2.70;;;2.50;;
14377;SDS011;7272;53.668;9.578;2023-04-27T07:21:57;2.83;;;2.40;;
14377;SDS011;7272;53.668;9.578;2023-04-27T07:24:59;3.60;;;3.00;;
14377;SDS011;7272;53.668;9.578;2023-04-27T07:28:01;2.80;;;2.60;;
14377;SDS011;7272;53.668;9.578;2023-04-27T07:31:03;2.77;;;2.57;;
14377;SDS011;7272;53.668;9.578;2023-04-27T07:34:05;3.03;;;2.83;;
14377;SDS011;7272;53.668;9.578;2023-04-27T07:37:06;3.40;;;2.53;;
14377;SDS011;7272;53.668;9.578;2023-04-27T07:40:08;3.87;;;2.37;;
14377;SDS011;7272;53.668;9.578;2023-04-27T07:43:10;2.87;;;2.43;;
14377;SDS011;7272;53.668;9.578;2023-04-27T07:46:12;3.73;;;2.70;;
14377;SDS011;7272;53.668;9.578;2023-04-27T07:49:13;2.50;;;2.30;;
14377;SDS011;7272;53.668;9.578;2023-04-27T07:52:15;2.90;;;2.10;;
14377;SDS011;7272;53.668;9.578;2023-04-27T07:55:16;4.87;;;3.27;;
14377;SDS011;7272;53.668;9.578;2023-04-27T07:58:20;6.60;;;2.90;;
14377;SDS011;7272;53.668;9.578;2023-04-27T08:01:22;3.57;;;2.63;;
14377;SDS011;7272;53.668;9.578;2023-04-27T08:04:23;2.50;;;2.30;;
14377;SDS011;7272;53.668;9.578;2023-04-27T08:07:24;2.80;;;2.17;;
14377;SDS011;7272;53.668;9.578;2023-04-27T08:10:26;3.30;;;2.63;;
14377;SDS011;7272;53.668;9.578;2023-04-27T08:13:28;3.23;;;2.03;;
14377;SDS011;7272;53.668;9.578;2023-04-27T08:16:30;3.43;;;2.40;;
14377;SDS011;7272;53.668;9.578;2023-04-27T08:19:31;4.20;;;2.70;;
14377;SDS011;7272;53.668;9.578;2023-04-27T08:22:32;3.43;;;3.13;;
14377;SDS011;7272;53.668;9.578;2023-04-27T08:25:34;4.00;;;3.13;;
14377;SDS011;7272;53.668;9.578;2023-04-27T08:28:36;4.37;;;2.90;;
14377;SDS011;7272;53.668;9.578;2023-04-27T08:31:37;2.80;;;2.40;;
14377;SDS011;7272;53.668;9.578;2023-04-27T08:34:39;4.07;;;2.50;;
14377;SDS011;7272;53.668;9.578;2023-04-27T08:37:40;3.20;;;1.90;;
14377;SDS011;7272;53.668;9.578;2023-04-27T08:40:42;2.70;;;2.40;;
14377;SDS011;7272;53.668;9.578;2023-04-27T08:43:44;2.20;;;2.00;;
14377;SDS011;7272;53.668;9.578;2023-04-27T08:46:45;4.07;;;2.20;;
14377;SDS011;7272;53.668;9.578;2023-04-27T08:49:46;3.37;;;2.30;;
14377;SDS011;7272;53.668;9.578;2023-04-27T08:52:47;3.07;;;2.10;;
14377;SDS011;7272;53.668;9.578;2023-04-27T08:55:49;2.50;;;2.30;;
14377;SDS011;7272;53.668;9.578;2023-04-27T08:58:51;3.20;;;2.00;;
14377;SDS011;7272;53.668;9.578;2023-04-27T09:01:53;2.77;;;1.90;;
14377;SDS011;7272;53.668;9.578;2023-04-27T09:04:54;1.70;;;1.60;;
14377;SDS011;7272;53.668;9.578;2023-04-27T09:07:56;2.30;;;2.10;;
14377;SDS011;7272;53.668;9.578;2023-04-27T09:10:58;2.10;;;1.90;;
14377;SDS011;7272;53.668;9.578;2023-04-27T09:14:01;3.47;;;2.80;;
14377;SDS011;7272;53.668;9.578;2023-04-27T09:17:03;3.20;;;2.27;;
14377;SDS011;7272;53.668;9.578;2023-04-27T09:20:05;5.57;;;2.30;;
14377;SDS011;7272;53.668;9.578;2023-04-27T09:23:09;2.73;;;2.03;;
14377;SDS011;7272;53.668;9.578;2023-04-27T09:26:17;2.77;;;2.33;;
14377;SDS011;7272;53.668;9.578;2023-04-27T09:29:31;2.67;;;2.00;;
14377;SDS011;7272;53.668;9.578;2023-04-27T09:32:33;2.60;;;2.00;;
14377;SDS011;7272;53.668;9.578;2023-04-27T09:35:34;4.33;;;2.50;;
14377;SDS011;7272;53.668;9.578;2023-04-27T09:38:36;1.73;;;1.63;;
14377;SDS011;7272;53.668;9.578;2023-04-27T09:41:37;2.00;;;1.60;;
14377;SDS011;7272;53.668;9.578;2023-04-27T09:44:39;2.67;;;2.23;;
14377;SDS011;7272;53.668;9.578;2023-04-27T09:47:40;3.30;;;2.13;;
14377;SDS011;7272;53.668;9.578;2023-04-27T09:50:43;2.30;;;1.80;;
14377;SDS011;7272;53.668;9.578;2023-04-27T09:53:45;2.40;;;2.20;;
14377;SDS011;7272;53.668;9.578;2023-04-27T09:56:52;2.73;;;2.50;;
14377;SDS011;7272;53.668;9.578;2023-04-27T10:00:04;3.93;;;2.13;;
14377;SDS011;7272;53.668;9.578;2023-04-27T10:03:19;1.77;;;1.63;;
14377;SDS011;7272;53.668;9.578;2023-04-27T10:10:00;5.53;;;3.20;;
14377;SDS011;7272;53.668;9.578;2023-04-27T10:13:03;3.53;;;3.13;;
14377;SDS011;7272;53.668;9.578;2023-04-27T10:16:14;3.37;;;3.07;;
14377;SDS011;7272;53.668;9.578;2023-04-27T10:19:16;6.03;;;3.43;;
14377;SDS011;7272;53.668;9.578;2023-04-27T10:22:17;3.53;;;3.23;;
14377;SDS011;7272;53.668;9.578;2023-04-27T10:25:19;3.83;;;3.20;;
14377;SDS011;7272;53.668;9.578;2023-04-27T10:28:22;3.70;;;3.40;;
14377;SDS011;7272;53.668;9.578;2023-04-27T10:31:27;3.43;;;3.00;;
14377;SDS011;7272;53.668;9.578;2023-04-27T10:34:28;3.57;;;3.23;;
14377;SDS011;7272;53.668;9.578;2023-04-27T10:37:37;4.07;;;2.90;;
14377;SDS011;7272;53.668;9.578;2023-04-27T10:40:39;5.27;;;2.80;;
14377;SDS011;7272;53.668;9.578;2023-04-27T10:43:43;3.53;;;2.77;;
14377;SDS011;7272;53.668;9.578;2023-04-27T10:46:49;2.50;;;2.30;;
14377;SDS011;7272;53.668;9.578;2023-04-27T10:49:51;2.80;;;2.60;;
14377;SDS011;7272;53.668;9.578;2023-04-27T10:52:53;2.63;;;2.17;;
14377;SDS011;7272;53.668;9.578;2023-04-27T10:55:59;3.63;;;2.30;;
14377;SDS011;7272;53.668;9.578;2023-04-27T10:59:01;2.90;;;2.70;;
14377;SDS011;7272;53.668;9.578;2023-04-27T11:02:03;3.60;;;2.87;;
14377;SDS011;7272;53.668;9.578;2023-04-27T11:05:14;3.20;;;2.63;;
14377;SDS011;7272;53.668;9.578;2023-04-27T11:08:17;3.57;;;3.10;;
14377;SDS011;7272;53.668;9.578;2023-04-27T11:11:20;3.90;;;2.93;;
14377;SDS011;7272;53.668;9.578;2023-04-27T11:14:21;3.63;;;2.60;;
14377;SDS011;7272;53.668;9.578;2023-04-27T11:17:27;3.50;;;2.47;;
14377;SDS011;7272;53.668;9.578;2023-04-27T11:20:29;3.27;;;2.60;;
14377;SDS011;7272;53.668;9.578;2023-04-27T11:23:31;4.30;;;2.50;;
14377;SDS011;7272;53.668;9.578;2023-04-27T11:26:36;3.87;;;2.73;;
14377;SDS011;7272;53.668;9.578;2023-04-27T11:29:37;3.17;;;2.83;;
14377;SDS011;7272;53.668;9.578;2023-04-27T11:32:39;2.90;;;2.60;;
14377;SDS011;7272;53.668;9.578;2023-04-27T11:35:41;3.80;;;2.83;;
14377;SDS011;7272;53.668;9.578;2023-04-27T11:38:42;3.90;;;2.83;;
14377;SDS011;7272;53.668;9.578;2023-04-27T11:41:44;3.03;;;2.60;;
14377;SDS011;7272;53.668;9.578;2023-04-27T11:44:50;3.73;;;2.63;;
14377;SDS011;7272;53.668;9.578;2023-04-27T11:47:53;3.17;;;2.80;;
14377;SDS011;7272;53.668;9.578;2023-04-27T11:50:55;4.07;;;2.47;;
14377;SDS011;7272;53.668;9.578;2023-04-27T11:54:03;3.47;;;2.93;;
14377;SDS011;7272;53.668;9.578;2023-04-27T11:57:05;3.50;;;2.80;;
14377;SDS011;7272;53.668;9.578;2023-04-27T12:00:07;2.43;;;2.20;;
14377;SDS011;7272;53.668;9.578;2023-04-27T12:03:19;3.73;;;2.60;;
14377;SDS011;7272;53.668;9.578;2023-04-27T12:06:23;2.97;;;2.43;;
14377;SDS011;7272;53.668;9.578;2023-04-27T12:09:24;2.80;;;2.37;;
14377;SDS011;7272;53.668;9.578;2023-04-27T12:12:25;2.67;;;2.47;;
14377;SDS011;7272;53.668;9.578;2023-04-27T12:15:27;2.60;;;2.40;;
14377;SDS011;7272;53.668;9.578;2023-04-27T12:18:29;3.45;;;3.15;;
14377;SDS011;7272;53.668;9.578;2023-04-27T12:21:30;3.10;;;2.90;;
14377;SDS011;7272;53.668;9.578;2023-04-27T12:24:31;3.57;;;3.27;;
14377;SDS011;7272;53.668;9.578;2023-04-27T12:27:32;4.27;;;2.73;;
14377;SDS011;7272;53.668;9.578;2023-04-27T12:30:34;2.80;;;2.60;;
14377;SDS011;7272;53.668;9.578;2023-04-27T12:33:36;2.93;;;2.63;;
14377;SDS011;7272;53.668;9.578;2023-04-27T12:36:37;2.90;;;2.70;;
14377;SDS011;7272;53.668;9.578;2023-04-27T12:39:38;4.63;;;2.60;;
14377;SDS011;7272;53.668;9.578;2023-04-27T12:42:40;4.23;;;3.20;;
14377;SDS011;7272;53.668;9.578;2023-04-27T12:45:41;2.80;;;2.50;;
14377;SDS011;7272;53.668;9.578;2023-04-27T12:48:43;3.23;;;2.70;;
14377;SDS011;7272;53.668;9.578;2023-04-27T12:51:44;5.50;;;3.30;;
14377;SDS011;7272;53.668;9.578;2023-04-27T12:54:47;3.83;;;3.43;;
14377;SDS011;7272;53.668;9.578;2023-04-27T12:57:48;3.58;;;2.97;;
14377;SDS011;7272;53.668;9.578;2023-04-27T13:00:49;3.57;;;3.27;;
14377;SDS011;7272;53.668;9.578;2023-04-27T13:03:51;3.70;;;3.30;;
14377;SDS011;7272;53.668;9.578;2023-04-27T13:06:53;3.23;;;2.97;;
14377;SDS011;7272;53.668;9.578;2023-04-27T13:09:54;3.87;;;3.20;;
14377;SDS011;7272;53.668;9.578;2023-04-27T13:12:55;3.10;;;2.90;;
14377;SDS011;7272;53.668;9.578;2023-04-27T13:15:58;5.27;;;3.10;;
14377;SDS011;7272;53.668;9.578;2023-04-27T13:19:00;3.30;;;3.10;;
14377;SDS011;7272;53.668;9.578;2023-04-27T13:22:01;3.47;;;3.17;;
14377;SDS011;7272;53.668;9.578;2023-04-27T13:25:03;3.97;;;3.20;;
14377;SDS011;7272;53.668;9.578;2023-04-27T13:28:06;4.93;;;3.40;;
14377;SDS011;7272;53.668;9.578;2023-04-27T13:31:07;3.17;;;2.87;;
14377;SDS011;7272;53.668;9.578;2023-04-27T13:34:09;3.90;;;3.60;;
14377;SDS011;7272;53.668;9.578;2023-04-27T13:37:11;4.27;;;3.40;;
14377;SDS011;7272;53.668;9.578;2023-04-27T13:40:12;4.05;;;3.65;;
14377;SDS011;7272;53.668;9.578;2023-04-27T13:43:13;4.77;;;3.57;;
14377;SDS011;7272;53.668;9.578;2023-04-27T13:46:14;4.35;;;3.95;;
14377;SDS011;7272;53.668;9.578;2023-04-27T13:49:16;3.43;;;3.13;;
14377;SDS011;7272;53.668;9.578;2023-04-27T13:52:18;4.30;;;3.73;;
14377;SDS011;7272;53.668;9.578;2023-04-27T13:55:19;3.70;;;3.37;;
14377;SDS011;7272;53.668;9.578;2023-04-27T13:58:20;4.57;;;3.80;;
14377;SDS011;7272;53.668;9.578;2023-04-27T14:01:22;6.33;;;4.37;;
14377;SDS011;7272;53.668;9.578;2023-04-27T14:04:24;4.80;;;4.30;;
14377;SDS011;7272;53.668;9.578;2023-04-27T14:07:26;6.67;;;4.83;;
14377;SDS011;7272;53.668;9.578;2023-04-27T14:10:27;4.70;;;4.30;;
14377;SDS011;7272;53.668;9.578;2023-04-27T14:13:28;4.43;;;4.03;;
14377;SDS011;7272;53.668;9.578;2023-04-27T14:16:29;5.60;;;4.50;;
14377;SDS011;7272;53.668;9.578;2023-04-27T14:19:31;4.40;;;4.00;;
14377;SDS011;7272;53.668;9.578;2023-04-27T14:22:34;5.30;;;4.80;;
14377;SDS011;7272;53.668;9.578;2023-04-27T14:25:36;5.20;;;4.70;;
14377;SDS011;7272;53.668;9.578;2023-04-27T14:28:38;5.87;;;4.77;;
14377;SDS011;7272;53.668;9.578;2023-04-27T14:31:40;4.60;;;4.20;;
14377;SDS011;7272;53.668;9.578;2023-04-27T14:34:42;4.73;;;4.30;;
14377;SDS011;7272;53.668;9.578;2023-04-27T14:37:43;4.83;;;4.00;;
14377;SDS011;7272;53.668;9.578;2023-04-27T14:40:44;4.70;;;4.30;;
14377;SDS011;7272;53.668;9.578;2023-04-27T14:43:46;5.50;;;4.83;;
14377;SDS011;7272;53.668;9.578;2023-04-27T14:46:48;5.33;;;4.70;;
14377;SDS011;7272;53.668;9.578;2023-04-27T14:49:49;4.90;;;4.40;;
14377;SDS011;7272;53.668;9.578;2023-04-27T14:52:51;5.57;;;4.93;;
14377;SDS011;7272;53.668;9.578;2023-04-27T14:55:57;6.27;;;4.30;;
14377;SDS011;7272;53.668;9.578;2023-04-27T14:58:58;6.20;;;4.57;;
14377;SDS011;7272;53.668;9.578;2023-04-27T15:01:59;5.17;;;4.67;;
14377;SDS011;7272;53.668;9.578;2023-04-27T15:05:01;5.78;;;5.28;;
14377;SDS011;7272;53.668;9.578;2023-04-27T15:08:04;4.87;;;4.40;;
14377;SDS011;7272;53.668;9.578;2023-04-27T15:11:06;5.37;;;4.83;;
14377;SDS011;7272;53.668;9.578;2023-04-27T15:14:07;5.27;;;4.77;;
14377;SDS011;7272;53.668;9.578;2023-04-27T15:17:08;5.90;;;5.17;;
14377;SDS011;7272;53.668;9.578;2023-04-27T15:20:10;6.43;;;5.27;;
14377;SDS011;7272;53.668;9.578;2023-04-27T15:23:13;5.83;;;5.33;;
14377;SDS011;7272;53.668;9.578;2023-04-27T15:26:14;6.20;;;4.93;;
14377;SDS011;7272;53.668;9.578;2023-04-27T15:29:15;4.90;;;4.50;;
14377;SDS011;7272;53.668;9.578;2023-04-27T15:32:17;5.73;;;4.70;;
14377;SDS011;7272;53.668;9.578;2023-04-27T15:35:19;4.70;;;4.30;;
14377;SDS011;7272;53.668;9.578;2023-04-27T15:38:20;6.35;;;5.75;;
14377;SDS011;7272;53.668;9.578;2023-04-27T15:41:22;5.17;;;4.67;;
14377;SDS011;7272;53.668;9.578;2023-04-27T15:44:23;5.53;;;4.70;;
14377;SDS011;7272;53.668;9.578;2023-04-27T15:47:24;6.47;;;5.23;;
14377;SDS011;7272;53.668;9.578;2023-04-27T15:50:26;6.13;;;4.40;;
14377;SDS011;7272;53.668;9.578;2023-04-27T15:53:28;6.97;;;4.43;;
14377;SDS011;7272;53.668;9.578;2023-04-27T15:56:29;6.97;;;5.03;;
14377;SDS011;7272;53.668;9.578;2023-04-27T15:59:31;6.13;;;4.93;;
14377;SDS011;7272;53.668;9.578;2023-04-27T16:02:32;5.03;;;4.33;;
14377;SDS011;7272;53.668;9.578;2023-04-27T16:05:34;5.40;;;4.90;;
14377;SDS011;7272;53.668;9.578;2023-04-27T16:08:35;5.87;;;5.27;;
14377;SDS011;7272;53.668;9.578;2023-04-27T16:11:36;5.83;;;4.60;;
14377;SDS011;7272;53.668;9.578;2023-04-27T16:14:38;5.63;;;5.07;;
14377;SDS011;7272;53.668;9.578;2023-04-27T16:17:39;6.47;;;5.88;;
14377;SDS011;7272;53.668;9.578;2023-04-27T16:20:41;5.38;;;4.88;;
14377;SDS011;7272;53.668;9.578;2023-04-27T16:23:42;5.93;;;4.77;;
14377;SDS011;7272;53.668;9.578;2023-04-27T16:26:44;4.97;;;4.57;;
14377;SDS011;7272;53.668;9.578;2023-04-27T16:29:45;6.83;;;4.80;;
14377;SDS011;7272;53.668;9.578;2023-04-27T16:32:47;5.40;;;5.00;;
14377;SDS011;7272;53.668;9.578;2023-04-27T16:35:48;4.73;;;4.30;;
14377;SDS011;7272;53.668;9.578;2023-04-27T16:38:50;5.80;;;4.90;;
14377;SDS011;7272;53.668;9.578;2023-04-27T16:41:51;4.80;;;4.40;;
14377;SDS011;7272;53.668;9.578;2023-04-27T16:44:52;6.73;;;5.10;;
14377;SDS011;7272;53.668;9.578;2023-04-27T16:47:53;7.03;;;5.40;;
14377;SDS011;7272;53.668;9.578;2023-04-27T16:50:55;5.83;;;5.13;;
14377;SDS011;7272;53.668;9.578;2023-04-27T16:53:57;7.10;;;5.17;;
14377;SDS011;7272;53.668;9.578;2023-04-27T16:56:58;7.05;;;6.35;;
14377;SDS011;7272;53.668;9.578;2023-04-27T16:59:59;6.50;;;6.00;;
14377;SDS011;7272;53.668;9.578;2023-04-27T17:03:01;5.33;;;4.83;;
14377;SDS011;7272;53.668;9.578;2023-04-27T17:06:03;5.90;;;5.40;;
14377;SDS011;7272;53.668;9.578;2023-04-27T17:09:04;5.83;;;5.13;;
14377;SDS011;7272;53.668;9.578;2023-04-27T17:12:06;5.27;;;4.70;;
14377;SDS011;7272;53.668;9.578;2023-04-27T17:15:11;4.70;;;4.30;;
14377;SDS011;7272;53.668;9.578;2023-04-27T17:18:12;6.17;;;4.63;;
14377;SDS011;7272;53.668;9.578;2023-04-27T17:21:14;5.30;;;4.80;;
14377;SDS011;7272;53.668;9.578;2023-04-27T17:24:16;4.87;;;4.33;;
14377;SDS011;7272;53.668;9.578;2023-04-27T17:27:17;4.67;;;4.27;;
14377;SDS011;7272;53.668;9.578;2023-04-27T17:30:18;6.53;;;5.07;;
14377;SDS011;7272;53.668;9.578;2023-04-27T17:33:20;4.50;;;4.10;;
14377;SDS011;7272;53.668;9.578;2023-04-27T17:36:22;5.10;;;4.68;;
14377;SDS011;7272;53.668;9.578;2023-04-27T17:39:23;5.20;;;4.80;;
14377;SDS011;7272;53.668;9.578;2023-04-27T17:42:24;4.63;;;3.90;;
14377;SDS011;7272;53.668;9.578;2023-04-27T17:45:26;5.00;;;3.87;;
14377;SDS011;7272;53.668;9.578;2023-04-27T17:48:27;4.37;;;4.07;;
14377;SDS011;7272;53.668;9.578;2023-04-27T17:51:29;4.80;;;4.40;;
14377;SDS011;7272;53.668;9.578;2023-04-27T17:54:32;4.07;;;3.70;;
14377;SDS011;7272;53.668;9.578;2023-04-27T17:57:33;4.87;;;3.77;;
14377;SDS011;7272;53.668;9.578;2023-04-27T18:00:34;4.00;;;3.70;;
14377;SDS011;7272;53.668;9.578;2023-04-27T18:03:36;4.10;;;3.80;;
14377;SDS011;7272;53.668;9.578;2023-04-27T18:06:38;4.23;;;3.83;;
14377;SDS011;7272;53.668;9.578;2023-04-27T18:09:39;4.73;;;3.70;;
14377;SDS011;7272;53.668;9.578;2023-04-27T18:12:40;4.75;;;4.30;;
14377;SDS011;7272;53.668;9.578;2023-04-27T18:15:42;5.17;;;4.67;;
14377;SDS011;7272;53.668;9.578;2023-04-27T18:18:43;5.63;;;4.37;;
14377;SDS011;7272;53.668;9.578;2023-04-27T18:21:45;4.07;;;3.27;;
14377;SDS011;7272;53.668;9.578;2023-04-27T18:24:46;4.43;;;3.07;;
14377;SDS011;7272;53.668;9.578;2023-04-27T18:27:47;5.50;;;4.00;;
14377;SDS011;7272;53.668;9.578;2023-04-27T18:30:54;4.37;;;4.00;;
14377;SDS011;7272;53.668;9.578;2023-04-27T18:33:55;3.97;;;3.67;;
14377;SDS011;7272;53.668;9.578;2023-04-27T18:36:57;5.00;;;3.93;;